createdAt,value
2016-03-22T00:00:10.517Z,0
2016-03-22T00:01:10.520Z,0
2016-03-22T00:02:10.569Z,0
2016-03-22T00:03:10.542Z,0
2016-03-22T00:04:10.762Z,0
2016-03-22T00:05:10.546Z,0
2016-03-22T00:06:23.284Z,0
2016-03-22T00:07:11.239Z,0
2016-03-22T00:08:29.835Z,0
2016-03-22T00:09:10.666Z,0
2016-03-22T00:10:10.653Z,0
2016-03-22T00:11:11.250Z,0
2016-03-22T00:12:10.691Z,0
2016-03-22T00:13:10.708Z,0
2016-03-22T00:14:23.445Z,0
2016-03-22T00:15:16.980Z,0
2016-03-22T00:16:23.497Z,0
2016-03-22T00:17:23.499Z,0
2016-03-22T00:18:36.472Z,0
2016-03-22T00:19:30.005Z,0
2016-03-22T00:20:10.805Z,0
2016-03-22T00:21:10.808Z,0
2016-03-22T00:22:10.967Z,0
2016-03-22T00:23:10.876Z,0
2016-03-22T00:24:10.957Z,0
2016-03-22T00:25:17.193Z,0
2016-03-22T00:26:11.103Z,0
2016-03-22T00:27:12.387Z,0
2016-03-22T00:28:23.733Z,0
2016-03-22T00:29:23.704Z,0
2016-03-22T00:30:23.722Z,0
2016-03-22T00:31:10.991Z,0
2016-03-22T00:32:11.039Z,0
2016-03-22T00:33:17.277Z,0
2016-03-22T00:34:12.499Z,0
2016-03-22T00:35:30.282Z,0
2016-03-22T00:36:11.082Z,0
2016-03-22T00:37:30.287Z,0
2016-03-22T00:38:12.681Z,0
2016-03-22T00:39:11.230Z,0
2016-03-22T00:40:23.858Z,0
2016-03-22T00:41:17.423Z,0
2016-03-22T00:42:11.145Z,0
2016-03-22T00:43:23.929Z,0
2016-03-22T00:44:11.212Z,0
2016-03-22T00:45:24.184Z,0
2016-03-22T00:46:11.218Z,0
2016-03-22T00:47:11.268Z,0
2016-03-22T00:48:12.067Z,0
2016-03-22T00:49:11.289Z,0
2016-03-22T00:50:18.229Z,0
2016-03-22T00:51:11.340Z,0
2016-03-22T00:52:14.375Z,0
2016-03-22T00:53:24.095Z,0
2016-03-22T00:54:11.349Z,0
2016-03-22T00:55:30.523Z,0
2016-03-22T00:56:12.058Z,0
2016-03-22T00:57:11.450Z,0
2016-03-22T00:58:11.438Z,0
2016-03-22T00:59:11.455Z,0
2016-03-22T01:00:12.100Z,0
2016-03-22T01:01:11.508Z,0
2016-03-22T01:02:11.526Z,0
2016-03-22T01:03:11.530Z,0
2016-03-22T01:04:11.547Z,0
2016-03-22T01:05:24.347Z,0
2016-03-22T01:06:18.444Z,0
2016-03-22T01:07:30.821Z,0
2016-03-22T01:08:11.590Z,0
2016-03-22T01:09:37.280Z,0
2016-03-22T01:10:12.188Z,0
2016-03-22T01:11:10.894Z,0
2016-03-22T01:12:11.647Z,0
2016-03-22T01:13:17.306Z,0
2016-03-22T01:14:24.544Z,0
2016-03-22T01:15:17.984Z,0
2016-03-22T01:16:30.987Z,0
2016-03-22T01:17:11.739Z,0
2016-03-22T01:18:11.757Z,0
2016-03-22T01:19:12.384Z,0
2016-03-22T01:20:11.887Z,0
2016-03-22T01:21:13.218Z,0
2016-03-22T01:22:11.814Z,0
2016-03-22T01:23:18.224Z,0
2016-03-22T01:24:12.492Z,0
2016-03-22T01:25:11.869Z,0
2016-03-22T01:26:31.201Z,0
2016-03-22T01:27:11.922Z,0
2016-03-22T01:28:31.175Z,0
2016-03-22T01:29:11.942Z,0
2016-03-22T01:31:08.933Z,0
2016-03-22T01:31:21.527Z,0
2016-03-22T01:32:21.530Z,0
2016-03-22T01:33:34.375Z,0
2016-03-22T01:34:21.566Z,0
2016-03-22T01:35:21.584Z,0
2016-03-22T01:36:22.227Z,0
2016-03-22T01:37:21.668Z,0
2016-03-22T01:38:21.607Z,0
2016-03-22T01:39:21.080Z,0
2016-03-22T01:40:21.676Z,0
2016-03-22T01:41:21.772Z,0
2016-03-22T01:42:34.446Z,0
2016-03-22T01:43:34.496Z,0
2016-03-22T01:44:47.374Z,0
2016-03-22T01:45:21.782Z,0
2016-03-22T01:46:53.051Z,0
2016-03-22T01:47:21.756Z,0
2016-03-22T01:48:21.823Z,0
2016-03-22T01:49:21.809Z,0
2016-03-22T01:50:22.062Z,0
2016-03-22T01:51:21.846Z,0
2016-03-22T01:52:28.379Z,0
2016-03-22T01:53:21.898Z,0
2016-03-22T01:54:21.964Z,0
2016-03-22T01:55:21.887Z,0
2016-03-22T01:56:22.172Z,0
2016-03-22T01:57:21.936Z,0
2016-03-22T01:58:21.894Z,0
2016-03-22T01:59:21.947Z,0
2016-03-22T02:00:21.936Z,0
2016-03-22T02:01:21.971Z,0
2016-03-22T02:02:21.932Z,0
2016-03-22T02:03:22.023Z,0
2016-03-22T02:04:21.974Z,0
2016-03-22T02:05:21.988Z,0
2016-03-22T02:06:28.360Z,0
2016-03-22T02:07:22.062Z,0
2016-03-22T02:08:22.033Z,0
2016-03-22T02:09:22.251Z,0
2016-03-22T02:10:22.268Z,0
2016-03-22T02:11:28.348Z,0
2016-03-22T02:12:22.037Z,0
2016-03-22T02:13:34.850Z,0
2016-03-22T02:14:22.102Z,0
2016-03-22T02:15:22.121Z,0
2016-03-22T02:16:22.262Z,0
2016-03-22T02:17:22.156Z,0
2016-03-22T02:18:23.503Z,0
2016-03-22T02:19:22.192Z,0
2016-03-22T02:20:22.258Z,0
2016-03-22T02:21:21.433Z,0
2016-03-22T02:22:23.653Z,0
2016-03-22T02:23:22.250Z,0
2016-03-22T02:24:25.206Z,0
2016-03-22T02:25:22.271Z,0
2016-03-22T02:26:41.508Z,0
2016-03-22T02:27:22.277Z,0
2016-03-22T02:28:22.326Z,0
2016-03-22T02:29:22.329Z,0
2016-03-22T02:30:23.743Z,0
2016-03-22T02:31:23.760Z,0
2016-03-22T02:32:22.357Z,0
2016-03-22T02:33:25.423Z,0
2016-03-22T02:34:22.393Z,0
2016-03-22T02:35:23.022Z,0
2016-03-22T02:36:23.821Z,0
2016-03-22T02:37:22.464Z,0
2016-03-22T02:38:22.467Z,0
2016-03-22T02:39:22.517Z,0
2016-03-22T02:40:22.550Z,0
2016-03-22T02:41:22.585Z,0
2016-03-22T02:42:22.525Z,0
2016-03-22T02:43:23.167Z,0
2016-03-22T02:44:22.593Z,0
2016-03-22T02:45:22.564Z,0
2016-03-22T02:46:35.394Z,0
2016-03-22T02:47:24.006Z,0
2016-03-22T02:48:48.275Z,0
2016-03-22T02:49:22.653Z,0
2016-03-22T02:50:22.765Z,0
2016-03-22T02:51:22.642Z,0
2016-03-22T02:52:22.739Z,0
2016-03-22T02:53:23.289Z,0
2016-03-22T02:54:22.729Z,0
2016-03-22T02:55:22.700Z,0
2016-03-22T02:56:35.531Z,0
2016-03-22T02:57:29.034Z,0
2016-03-22T02:58:22.786Z,0
2016-03-22T03:00:25.838Z,0
2016-03-22T03:01:25.966Z,0
2016-03-22T03:02:25.922Z,0
2016-03-22T03:03:26.518Z,0
2016-03-22T03:04:25.943Z,0
2016-03-22T03:05:26.509Z,0
2016-03-22T03:06:25.949Z,0
2016-03-22T03:07:25.967Z,0
2016-03-22T03:08:26.001Z,0
2016-03-22T03:09:32.332Z,0
2016-03-22T03:10:26.162Z,0
2016-03-22T03:11:26.025Z,0
2016-03-22T03:12:26.074Z,0
2016-03-22T03:13:26.280Z,0
2016-03-22T03:14:26.142Z,0
2016-03-22T03:15:26.082Z,0
2016-03-22T03:16:26.178Z,0
2016-03-22T03:17:38.854Z,0
2016-03-22T03:18:38.919Z,0
2016-03-22T03:19:45.358Z,0
2016-03-22T03:20:26.206Z,0
2016-03-22T03:21:26.192Z,0
2016-03-22T03:22:26.210Z,0
2016-03-22T03:23:26.244Z,0
2016-03-22T03:24:32.497Z,0
2016-03-22T03:25:26.296Z,0
2016-03-22T03:26:45.550Z,0
2016-03-22T03:27:26.427Z,0
2016-03-22T03:28:51.976Z,0
2016-03-22T03:29:26.355Z,0
2016-03-22T03:30:27.763Z,0
2016-03-22T03:31:26.469Z,0
2016-03-22T03:32:39.143Z,0
2016-03-22T03:33:26.412Z,0
2016-03-22T03:34:26.368Z,0
2016-03-22T03:35:26.402Z,0
2016-03-22T03:36:26.420Z,0
2016-03-22T03:37:26.470Z,0
2016-03-22T03:38:26.473Z,0
2016-03-22T03:39:39.226Z,0
2016-03-22T03:40:26.540Z,0
2016-03-22T03:41:39.261Z,0
2016-03-22T03:42:26.609Z,0
2016-03-22T03:43:26.532Z,0
2016-03-22T03:44:26.660Z,0
2016-03-22T03:45:26.584Z,0
2016-03-22T03:46:26.603Z,0
2016-03-22T03:47:26.575Z,0
2016-03-22T03:48:26.625Z,0
2016-03-22T03:49:33.517Z,0
2016-03-22T03:50:26.644Z,0
2016-03-22T03:51:26.679Z,0
2016-03-22T03:52:26.697Z,0
2016-03-22T03:53:26.763Z,0
2016-03-22T03:54:26.703Z,0
2016-03-22T03:55:26.893Z,0
2016-03-22T03:56:39.474Z,0
2016-03-22T03:57:27.430Z,0
2016-03-22T03:58:26.776Z,0
2016-03-22T03:59:26.794Z,0
2016-03-22T04:00:26.797Z,0
2016-03-22T04:01:26.846Z,0
2016-03-22T04:02:26.880Z,0
2016-03-22T04:03:39.665Z,0
2016-03-22T04:04:26.932Z,0
2016-03-22T04:05:26.920Z,0
2016-03-22T04:06:26.907Z,0
2016-03-22T04:07:26.910Z,0
2016-03-22T04:08:33.178Z,0
2016-03-22T04:09:26.962Z,0
2016-03-22T04:10:39.714Z,0
2016-03-22T04:11:27.561Z,0
2016-03-22T04:12:27.142Z,0
2016-03-22T04:13:33.910Z,0
2016-03-22T04:14:33.506Z,0
2016-03-22T04:15:27.040Z,0
2016-03-22T04:16:27.059Z,0
2016-03-22T04:17:39.811Z,0
2016-03-22T04:18:27.095Z,0
2016-03-22T04:20:24.100Z,0
2016-03-22T04:20:36.741Z,0
2016-03-22T04:21:55.932Z,0
2016-03-22T04:22:38.137Z,0
2016-03-22T04:24:52.612Z,0
2016-03-22T04:26:12.008Z,0
2016-03-22T04:26:59.070Z,0
2016-03-22T04:28:17.669Z,0
2016-03-22T04:29:05.622Z,0
2016-03-22T04:29:46.375Z,0
2016-03-22T04:31:49.630Z,0
2016-03-22T04:32:02.427Z,0
2016-03-22T04:34:02.542Z,0
2016-03-22T04:35:15.001Z,0
2016-03-22T04:36:02.532Z,0
2016-03-22T04:37:15.037Z,0
2016-03-22T04:38:02.256Z,0
2016-03-22T04:39:21.558Z,0
2016-03-22T04:40:02.902Z,0
2016-03-22T04:41:28.017Z,0
2016-03-22T04:42:03.798Z,0
2016-03-22T04:44:04.835Z,0
2016-03-22T04:44:30.321Z,0
2016-03-22T04:45:17.448Z,0
2016-03-22T04:46:17.515Z,0
2016-03-22T04:47:23.829Z,0
2016-03-22T04:48:23.723Z,0
2016-03-22T04:49:36.679Z,0
2016-03-22T04:50:36.822Z,0
2016-03-22T04:52:46.312Z,0
2016-03-22T04:53:20.783Z,0
2016-03-22T04:55:23.272Z,0
2016-03-22T04:55:35.694Z,0
2016-03-22T04:56:35.964Z,0
2016-03-22T04:57:35.872Z,0
2016-03-22T04:58:48.625Z,0
2016-03-22T04:59:48.486Z,0
2016-03-22T05:00:36.021Z,0
2016-03-22T05:01:55.149Z,0
2016-03-22T05:02:36.573Z,0
2016-03-22T05:03:35.982Z,0
2016-03-22T05:04:36.593Z,0
2016-03-22T05:05:36.488Z,0
2016-03-22T05:06:48.802Z,0
2016-03-22T05:07:48.852Z,0
2016-03-22T05:08:48.808Z,0
2016-03-22T05:10:01.810Z,0
2016-03-22T05:10:48.829Z,0
2016-03-22T05:12:07.410Z,0
2016-03-22T05:12:48.881Z,0
2016-03-22T05:13:36.134Z,0
2016-03-22T05:16:11.533Z,5
2016-03-22T05:17:42.785Z,5
2016-03-22T05:18:21.038Z,5
2016-03-22T05:18:55.382Z,5
2016-03-22T05:20:58.059Z,5
2016-03-22T05:21:29.890Z,5
2016-03-22T05:22:10.673Z,5
2016-03-22T05:24:10.710Z,5
2016-03-22T05:24:23.303Z,5
2016-03-22T05:26:13.919Z,5
2016-03-22T05:26:42.372Z,5
2016-03-22T05:27:52.344Z,5
2016-03-22T05:28:39.269Z,10
2016-03-22T05:30:29.789Z,10
2016-03-22T05:31:08.086Z,10
2016-03-22T05:31:55.151Z,15
2016-03-22T05:34:04.250Z,15
2016-03-22T05:34:16.830Z,15
2016-03-22T05:36:13.836Z,15
2016-03-22T05:36:26.336Z,20
2016-03-22T05:38:54.758Z,20
2016-03-22T05:39:07.227Z,25
2016-03-22T05:40:27.366Z,25
2016-03-22T05:41:07.366Z,25
2016-03-22T05:43:10.606Z,30
2016-03-22T05:43:48.875Z,30
2016-03-22T05:44:23.283Z,30
2016-03-22T05:46:25.836Z,30
2016-03-22T05:46:57.461Z,35
2016-03-22T05:47:38.432Z,35
2016-03-22T05:49:40.922Z,40
2016-03-22T05:50:33.549Z,45
2016-03-22T05:50:54.487Z,50
2016-03-22T05:51:53.538Z,50
2016-03-22T05:53:06.305Z,55
2016-03-22T05:53:59.886Z,55
2016-03-22T05:55:45.610Z,60
2016-03-22T05:57:58.303Z,65
2016-03-22T05:59:55.105Z,75
2016-03-22T06:00:33.374Z,75
2016-03-22T06:02:04.689Z,80
2016-03-22T06:03:14.257Z,80
2016-03-22T06:03:46.070Z,80
2016-03-22T06:04:39.634Z,85
2016-03-22T06:06:29.687Z,95
2016-03-22T06:06:55.078Z,95
2016-03-22T06:07:42.314Z,105
2016-03-22T06:09:01.504Z,135
2016-03-22T06:09:48.773Z,170
2016-03-22T06:11:01.854Z,170
2016-03-22T06:11:48.700Z,115
2016-03-22T06:12:43.593Z,95
2016-03-22T06:13:42.425Z,95
2016-03-22T06:14:42.395Z,95
2016-03-22T06:15:42.648Z,100
2016-03-22T06:16:42.463Z,100
2016-03-22T06:17:42.466Z,105
2016-03-22T06:18:42.484Z,115
2016-03-22T06:19:42.502Z,120
2016-03-22T06:20:42.616Z,125
2016-03-22T06:21:42.774Z,130
2016-03-22T06:22:55.292Z,140
2016-03-22T06:23:42.810Z,155
2016-03-22T06:24:42.610Z,190
2016-03-22T06:25:42.675Z,210
2016-03-22T06:26:42.662Z,205
2016-03-22T06:27:42.712Z,210
2016-03-22T06:28:43.292Z,205
2016-03-22T06:29:42.702Z,200
2016-03-22T06:30:42.673Z,210
2016-03-22T06:31:55.441Z,190
2016-03-22T06:32:49.038Z,190
2016-03-22T06:34:34.199Z,215
2016-03-22T06:34:46.793Z,230
2016-03-22T06:37:02.018Z,235
2016-03-22T06:38:02.036Z,280
2016-03-22T06:39:02.726Z,335
2016-03-22T06:40:02.119Z,325
2016-03-22T06:41:02.184Z,285
2016-03-22T06:42:02.734Z,270
2016-03-22T06:43:02.267Z,255
2016-03-22T06:44:02.131Z,250
2016-03-22T06:45:03.555Z,260
2016-03-22T06:46:14.919Z,270
2016-03-22T06:47:04.200Z,285
2016-03-22T06:48:52.721Z,335
2016-03-22T06:49:05.283Z,315
2016-03-22T06:50:05.349Z,315
2016-03-22T06:51:05.366Z,330
2016-03-22T06:52:04.698Z,425
2016-03-22T06:53:05.388Z,405
2016-03-22T06:54:06.000Z,355
2016-03-22T06:55:11.925Z,355
2016-03-22T06:56:05.490Z,345
2016-03-22T06:57:05.446Z,335
2016-03-22T06:58:18.186Z,565
2016-03-22T06:59:11.764Z,465
2016-03-22T07:00:18.238Z,420
2016-03-22T07:01:05.551Z,415
2016-03-22T07:02:05.537Z,315
2016-03-22T07:03:05.712Z,265
2016-03-22T07:04:11.965Z,215
2016-03-22T07:05:11.873Z,190
2016-03-22T07:06:05.627Z,195
2016-03-22T07:07:11.785Z,210
2016-03-22T07:08:11.934Z,225
2016-03-22T07:09:18.533Z,235
2016-03-22T07:10:12.064Z,240
2016-03-22T07:11:05.833Z,245
2016-03-22T07:12:06.210Z,250
2016-03-22T07:13:06.057Z,255
2016-03-22T07:14:05.856Z,255
2016-03-22T07:15:05.828Z,245
2016-03-22T07:16:06.002Z,230
2016-03-22T07:17:12.380Z,195
2016-03-22T07:18:13.557Z,180
2016-03-22T07:19:13.560Z,165
2016-03-22T07:20:06.044Z,160
2016-03-22T07:21:05.905Z,150
2016-03-22T07:22:06.065Z,145
2016-03-22T07:23:06.005Z,140
2016-03-22T07:24:05.992Z,135
2016-03-22T07:25:05.995Z,125
2016-03-22T07:26:06.029Z,120
2016-03-22T07:27:06.078Z,125
2016-03-22T07:28:06.112Z,135
2016-03-22T07:29:19.024Z,150
2016-03-22T07:30:07.571Z,155
2016-03-22T07:31:25.357Z,165
2016-03-22T07:32:18.876Z,165
2016-03-22T07:33:31.831Z,170
2016-03-22T07:34:18.897Z,170
2016-03-22T07:35:37.509Z,180
2016-03-22T07:36:18.903Z,185
2016-03-22T07:37:06.231Z,190
2016-03-22T07:38:06.217Z,205
2016-03-22T07:39:06.251Z,220
2016-03-22T07:40:06.879Z,240
2016-03-22T07:41:06.944Z,255
2016-03-22T07:42:07.009Z,275
2016-03-22T07:43:07.027Z,295
2016-03-22T07:44:06.468Z,305
2016-03-22T07:45:06.377Z,320
2016-03-22T07:46:19.133Z,335
2016-03-22T07:47:19.103Z,355
2016-03-22T07:48:25.731Z,380
2016-03-22T07:49:12.778Z,395
2016-03-22T07:50:32.128Z,400
2016-03-22T07:51:06.487Z,400
2016-03-22T07:53:09.116Z,395
2016-03-22T07:53:21.729Z,390
2016-03-22T07:54:21.888Z,385
2016-03-22T07:55:34.499Z,395
2016-03-22T07:56:22.456Z,400
2016-03-22T07:57:21.802Z,400
2016-03-22T07:58:21.837Z,400
2016-03-22T07:59:28.198Z,395
2016-03-22T08:00:21.920Z,390
2016-03-22T08:01:21.923Z,385
2016-03-22T08:02:21.987Z,380
2016-03-22T08:03:22.068Z,380
2016-03-22T08:04:21.946Z,375
2016-03-22T08:05:22.245Z,385
2016-03-22T08:06:21.952Z,385
2016-03-22T08:07:22.173Z,395
2016-03-22T08:08:28.395Z,405
2016-03-22T08:09:22.194Z,405
2016-03-22T08:10:34.775Z,385
2016-03-22T08:11:22.247Z,360
2016-03-22T08:12:41.264Z,360
2016-03-22T08:13:34.877Z,370
2016-03-22T08:14:22.114Z,380
2016-03-22T08:15:22.132Z,385
2016-03-22T08:16:22.150Z,400
2016-03-22T08:17:22.013Z,395
2016-03-22T08:18:35.000Z,375
2016-03-22T08:19:22.205Z,370
2016-03-22T08:21:31.804Z,375
2016-03-22T08:22:51.011Z,380
2016-03-22T08:23:31.888Z,380
2016-03-22T08:24:51.110Z,370
2016-03-22T08:25:32.284Z,365
2016-03-22T08:26:31.912Z,360
2016-03-22T08:27:32.118Z,360
2016-03-22T08:28:31.964Z,345
2016-03-22T08:29:32.561Z,315
2016-03-22T08:30:38.251Z,320
2016-03-22T08:31:32.018Z,315
2016-03-22T08:32:51.349Z,310
2016-03-22T08:33:32.149Z,305
2016-03-22T08:34:57.823Z,300
2016-03-22T08:35:32.420Z,310
2016-03-22T08:36:32.203Z,305
2016-03-22T08:37:32.363Z,320
2016-03-22T08:38:38.506Z,330
2016-03-22T08:39:32.243Z,335
2016-03-22T08:40:32.356Z,345
2016-03-22T08:41:32.327Z,340
2016-03-22T08:42:32.236Z,340
2016-03-22T08:43:45.051Z,345
2016-03-22T08:44:32.273Z,350
2016-03-22T08:45:45.025Z,345
2016-03-22T08:46:32.293Z,345
2016-03-22T08:47:33.703Z,340
2016-03-22T08:48:32.392Z,340
2016-03-22T08:49:45.099Z,350
2016-03-22T08:50:32.414Z,360
2016-03-22T08:51:32.385Z,365
2016-03-22T08:52:45.107Z,370
2016-03-22T08:53:32.405Z,380
2016-03-22T08:54:32.566Z,385
2016-03-22T08:55:33.036Z,365
2016-03-22T08:56:45.210Z,340
2016-03-22T08:57:32.511Z,310
2016-03-22T08:58:35.560Z,230
2016-03-22T08:59:45.282Z,245
2016-03-22T09:00:33.254Z,280
2016-03-22T09:01:32.678Z,280
2016-03-22T09:02:33.352Z,260
2016-03-22T09:03:32.604Z,245
2016-03-22T09:04:32.654Z,220
2016-03-22T09:05:32.735Z,215
2016-03-22T09:06:32.673Z,245
2016-03-22T09:07:45.487Z,285
2016-03-22T09:08:39.069Z,305
2016-03-22T09:09:51.947Z,300
2016-03-22T09:10:32.792Z,275
2016-03-22T09:11:32.811Z,265
2016-03-22T09:12:39.064Z,295
2016-03-22T09:13:32.833Z,305
2016-03-22T09:14:32.944Z,265
2016-03-22T09:15:32.869Z,270
2016-03-22T09:16:33.011Z,310
2016-03-22T09:17:32.921Z,310
2016-03-22T09:18:32.970Z,300
2016-03-22T09:19:39.458Z,295
2016-03-22T09:20:32.976Z,300
2016-03-22T09:22:23.496Z,320
2016-03-22T09:22:42.387Z,325
2016-03-22T09:23:36.124Z,345
2016-03-22T09:24:36.080Z,355
2016-03-22T09:25:42.520Z,355
2016-03-22T09:26:36.164Z,370
2016-03-22T09:27:48.916Z,380
2016-03-22T09:28:36.434Z,390
2016-03-22T09:29:36.234Z,410
2016-03-22T09:30:42.565Z,435
2016-03-22T09:31:48.990Z,435
2016-03-22T09:32:49.039Z,425
2016-03-22T09:33:37.557Z,405
2016-03-22T09:34:36.420Z,390
2016-03-22T09:35:36.344Z,390
2016-03-22T09:36:49.145Z,390
2016-03-22T09:37:36.350Z,390
2016-03-22T09:38:49.164Z,385
2016-03-22T09:39:36.402Z,390
2016-03-22T09:40:55.639Z,405
2016-03-22T09:41:37.892Z,405
2016-03-22T09:42:36.503Z,395
2016-03-22T09:43:49.225Z,395
2016-03-22T09:44:36.524Z,390
2016-03-22T09:45:36.575Z,365
2016-03-22T09:46:36.577Z,365
2016-03-22T09:47:36.580Z,375
2016-03-22T09:48:36.629Z,380
2016-03-22T09:49:36.694Z,405
2016-03-22T09:50:38.166Z,425
2016-03-22T09:51:36.762Z,400
2016-03-22T09:52:36.749Z,355
2016-03-22T09:53:37.299Z,305
2016-03-22T09:54:36.785Z,275
2016-03-22T09:55:49.649Z,295
2016-03-22T09:56:37.682Z,305
2016-03-22T09:57:50.982Z,370
2016-03-22T09:58:38.812Z,425
2016-03-22T09:59:36.831Z,430
2016-03-22T10:00:37.584Z,430
2016-03-22T10:01:36.898Z,460
2016-03-22T10:02:36.964Z,470
2016-03-22T10:03:49.638Z,465
2016-03-22T10:04:36.922Z,465
2016-03-22T10:05:49.676Z,485
2016-03-22T10:06:38.193Z,505
2016-03-22T10:07:36.992Z,525
2016-03-22T10:08:37.027Z,535
2016-03-22T10:09:37.029Z,545
2016-03-22T10:10:37.298Z,565
2016-03-22T10:11:37.128Z,565
2016-03-22T10:12:37.678Z,570
2016-03-22T10:13:37.369Z,550
2016-03-22T10:14:49.872Z,535
2016-03-22T10:15:37.170Z,540
2016-03-22T10:16:37.220Z,550
2016-03-22T10:17:37.191Z,540
2016-03-22T10:18:43.632Z,515
2016-03-22T10:19:37.588Z,480
2016-03-22T10:20:37.246Z,465
2016-03-22T10:21:43.546Z,465
2016-03-22T10:22:37.330Z,425
2016-03-22T10:23:37.316Z,345
2016-03-22T10:24:37.632Z,270
2016-03-22T10:25:37.369Z,195
2016-03-22T10:26:43.763Z,155
2016-03-22T10:27:43.749Z,140
2016-03-22T10:28:37.424Z,135
2016-03-22T10:29:37.490Z,130
2016-03-22T10:30:37.539Z,125
2016-03-22T10:31:37.510Z,110
2016-03-22T10:32:37.529Z,105
2016-03-22T10:33:37.531Z,110
2016-03-22T10:34:37.581Z,130
2016-03-22T10:35:37.584Z,165
2016-03-22T10:36:37.634Z,200
2016-03-22T10:37:37.636Z,210
2016-03-22T10:38:37.654Z,240
2016-03-22T10:39:37.751Z,275
2016-03-22T10:40:37.659Z,320
2016-03-22T10:41:37.739Z,355
2016-03-22T10:42:50.446Z,405
2016-03-22T10:43:37.745Z,435
2016-03-22T10:44:56.967Z,445
2016-03-22T10:45:38.408Z,445
2016-03-22T10:46:37.816Z,410
2016-03-22T10:47:50.538Z,395
2016-03-22T10:48:37.931Z,410
2016-03-22T10:49:37.856Z,430
2016-03-22T10:50:37.936Z,475
2016-03-22T10:51:37.923Z,510
2016-03-22T10:52:38.035Z,505
2016-03-22T10:53:37.944Z,480
2016-03-22T10:54:37.963Z,465
2016-03-22T10:55:44.310Z,410
2016-03-22T10:56:37.968Z,360
2016-03-22T10:57:50.627Z,310
2016-03-22T10:58:38.035Z,310
2016-03-22T10:59:38.039Z,360
2016-03-22T11:00:38.088Z,415
2016-03-22T11:01:38.262Z,455
2016-03-22T11:02:38.094Z,480
2016-03-22T11:03:50.907Z,520
2016-03-22T11:04:44.388Z,540
2016-03-22T11:05:57.337Z,550
2016-03-22T11:06:38.052Z,565
2016-03-22T11:08:03.878Z,580
2016-03-22T11:08:38.219Z,595
2016-03-22T11:09:38.250Z,605
2016-03-22T11:10:38.845Z,605
2016-03-22T11:11:38.282Z,605
2016-03-22T11:12:38.315Z,590
2016-03-22T11:13:44.596Z,560
2016-03-22T11:14:44.615Z,530
2016-03-22T11:15:38.367Z,500
2016-03-22T11:16:38.461Z,475
2016-03-22T11:17:44.666Z,425
2016-03-22T11:18:38.623Z,365
2016-03-22T11:19:38.436Z,300
2016-03-22T11:20:38.469Z,250
2016-03-22T11:21:38.660Z,210
2016-03-22T11:22:38.537Z,195
2016-03-22T11:23:38.712Z,185
2016-03-22T11:24:39.965Z,170
2016-03-22T11:25:38.545Z,160
2016-03-22T11:26:38.548Z,160
2016-03-22T11:27:38.691Z,155
2016-03-22T11:28:40.240Z,165
2016-03-22T11:29:51.384Z,230
2016-03-22T11:30:38.652Z,285
2016-03-22T11:31:38.796Z,300
2016-03-22T11:32:45.001Z,330
2016-03-22T11:33:38.707Z,405
2016-03-22T11:34:39.381Z,470
2016-03-22T11:35:38.759Z,495
2016-03-22T11:36:38.778Z,505
2016-03-22T11:37:38.828Z,515
2016-03-22T11:38:45.127Z,495
2016-03-22T11:39:38.879Z,495
2016-03-22T11:40:45.836Z,485
2016-03-22T11:41:38.900Z,460
2016-03-22T11:42:58.122Z,380
2016-03-22T11:43:38.922Z,330
2016-03-22T11:44:38.986Z,265
2016-03-22T11:45:40.380Z,215
2016-03-22T11:46:39.039Z,185
2016-03-22T11:47:42.057Z,155
2016-03-22T11:48:39.044Z,140
2016-03-22T11:49:58.265Z,150
2016-03-22T11:50:51.800Z,165
2016-03-22T11:52:04.787Z,190
2016-03-22T11:52:39.118Z,200
2016-03-22T11:53:39.698Z,240
2016-03-22T11:54:39.138Z,300
2016-03-22T11:55:39.173Z,350
2016-03-22T11:56:39.207Z,385
2016-03-22T11:57:51.975Z,395
2016-03-22T11:58:39.446Z,400
2016-03-22T11:59:39.309Z,390
2016-03-22T12:00:39.311Z,385
2016-03-22T12:01:39.329Z,365
2016-03-22T12:02:39.707Z,350
2016-03-22T12:03:39.944Z,335
2016-03-22T12:04:39.369Z,305
2016-03-22T12:05:39.575Z,270
2016-03-22T12:06:39.592Z,235
2016-03-22T12:07:39.439Z,215
2016-03-22T12:08:39.441Z,220
2016-03-22T12:09:52.164Z,235
2016-03-22T12:10:39.681Z,240
2016-03-22T12:11:58.700Z,240
2016-03-22T12:12:39.500Z,240
2016-03-22T12:13:39.549Z,245
2016-03-22T12:14:52.271Z,260
2016-03-22T12:15:39.570Z,265
2016-03-22T12:16:58.807Z,270
2016-03-22T12:17:39.622Z,275
2016-03-22T12:18:39.640Z,275
2016-03-22T12:19:45.925Z,275
2016-03-22T12:20:39.677Z,265
2016-03-22T12:21:52.446Z,235
2016-03-22T12:22:39.714Z,215
2016-03-22T12:23:39.732Z,180
2016-03-22T12:24:46.048Z,180
2016-03-22T12:25:46.051Z,200
2016-03-22T12:26:39.896Z,195
2016-03-22T12:27:39.773Z,190
2016-03-22T12:28:52.589Z,185
2016-03-22T12:29:52.654Z,185
2016-03-22T12:30:59.079Z,185
2016-03-22T12:31:39.895Z,185
2016-03-22T12:33:05.756Z,195
2016-03-22T12:33:46.275Z,200
2016-03-22T12:34:39.933Z,200
2016-03-22T12:35:52.734Z,195
2016-03-22T12:36:40.720Z,185
2016-03-22T12:38:49.648Z,160
2016-03-22T12:39:49.681Z,150
2016-03-22T12:40:49.669Z,155
2016-03-22T12:41:49.734Z,165
2016-03-22T12:42:49.689Z,150
2016-03-22T12:43:51.145Z,140
2016-03-22T12:44:49.710Z,140
2016-03-22T12:46:02.620Z,135
2016-03-22T12:46:56.060Z,135
2016-03-22T12:48:09.016Z,150
2016-03-22T12:48:49.831Z,155
2016-03-22T12:50:15.536Z,160
2016-03-22T12:50:49.805Z,160
2016-03-22T12:51:49.886Z,155
2016-03-22T12:52:49.936Z,150
2016-03-22T12:53:56.188Z,140
2016-03-22T12:54:49.987Z,125
2016-03-22T12:55:49.975Z,110
2016-03-22T12:57:02.852Z,115
2016-03-22T12:57:49.996Z,125
2016-03-22T12:58:50.092Z,105
2016-03-22T13:00:02.782Z,85
2016-03-22T13:00:50.144Z,100
2016-03-22T13:02:03.725Z,110
2016-03-22T13:02:50.103Z,110
2016-03-22T13:03:50.121Z,105
2016-03-22T13:04:50.123Z,85
2016-03-22T13:05:50.736Z,95
2016-03-22T13:06:51.614Z,95
2016-03-22T13:08:02.949Z,110
2016-03-22T13:08:53.234Z,130
2016-03-22T13:09:50.220Z,160
2016-03-22T13:10:50.864Z,190
2016-03-22T13:12:03.007Z,225
2016-03-22T13:12:50.291Z,230
2016-03-22T13:14:09.575Z,225
2016-03-22T13:14:57.155Z,220
2016-03-22T13:16:21.614Z,215
2016-03-22T13:16:58.021Z,210
2016-03-22T13:18:21.666Z,190
2016-03-22T13:18:50.369Z,185
2016-03-22T13:19:50.404Z,180
2016-03-22T13:20:50.906Z,185
2016-03-22T13:21:51.049Z,175
2016-03-22T13:22:51.115Z,160
2016-03-22T13:23:50.460Z,140
2016-03-22T13:24:50.588Z,115
2016-03-22T13:26:03.262Z,100
2016-03-22T13:26:50.532Z,95
2016-03-22T13:27:50.550Z,95
2016-03-22T13:28:50.631Z,90
2016-03-22T13:29:51.212Z,95
2016-03-22T13:30:56.886Z,115
2016-03-22T13:31:50.607Z,130
2016-03-22T13:33:03.376Z,140
2016-03-22T13:33:50.659Z,145
2016-03-22T13:34:50.772Z,145
2016-03-22T13:35:50.696Z,145
2016-03-22T13:38:55.923Z,175
2016-03-22T13:39:08.720Z,175
2016-03-22T13:40:08.739Z,175
2016-03-22T13:41:08.944Z,155
2016-03-22T13:42:08.759Z,155
2016-03-22T13:43:08.778Z,175
2016-03-22T13:44:09.015Z,190
2016-03-22T13:45:08.877Z,145
2016-03-22T13:46:08.863Z,115
2016-03-22T13:47:08.944Z,105
2016-03-22T13:48:09.307Z,115
2016-03-22T13:49:15.138Z,175
2016-03-22T13:50:08.922Z,205
2016-03-22T13:51:28.364Z,215
2016-03-22T13:52:15.192Z,220
2016-03-22T13:53:08.946Z,215
2016-03-22T13:54:09.166Z,195
2016-03-22T13:55:08.998Z,175
2016-03-22T13:56:09.031Z,165
2016-03-22T13:57:09.018Z,160
2016-03-22T13:58:09.131Z,125
2016-03-22T13:59:09.086Z,120
2016-03-22T14:00:21.857Z,180
2016-03-22T14:01:09.107Z,230
2016-03-22T14:02:09.157Z,260
2016-03-22T14:03:09.159Z,285
2016-03-22T14:04:09.178Z,305
2016-03-22T14:05:09.025Z,320
2016-03-22T14:06:09.183Z,335
2016-03-22T14:07:09.201Z,340
2016-03-22T14:08:21.956Z,345
2016-03-22T14:09:22.023Z,340
2016-03-22T14:10:22.025Z,340
2016-03-22T14:11:09.275Z,335
2016-03-22T14:12:09.278Z,325
2016-03-22T14:13:09.421Z,310
2016-03-22T14:14:10.736Z,300
2016-03-22T14:15:09.989Z,290
2016-03-22T14:16:09.397Z,260
2016-03-22T14:17:10.025Z,235
2016-03-22T14:18:09.435Z,225
2016-03-22T14:19:09.453Z,240
2016-03-22T14:20:22.474Z,250
2016-03-22T14:21:10.864Z,260
2016-03-22T14:22:28.714Z,270
2016-03-22T14:23:10.105Z,285
2016-03-22T14:24:35.328Z,310
2016-03-22T14:25:10.140Z,310
2016-03-22T14:26:09.581Z,315
2016-03-22T14:27:09.584Z,315